sensor_id;sensor_type;location;lat;lon;timestamp;pressure;altitude;pressure_sealevel;temperature;humidity
28911;BME280;16028;42.642;23.310;2023-04-10T00:01:17;94083.50;;;8.08;72.43
28911;BME280;16028;42.642;23.310;2023-04-10T00:03:43;94092.22;;;8.07;72.58
28911;BME280;16028;42.642;23.310;2023-04-10T00:06:11;94082.00;;;8.06;72.25
28911;BME280;16028;42.642;23.310;2023-04-10T00:08:38;94088.53;;;8.00;72.45
28911;BME280;16028;42.642;23.310;2023-04-10T00:11:04;94084.28;;;7.99;71.67
28911;BME280;16028;42.642;23.310;2023-04-10T00:13:31;94082.63;;;7.98;70.65
28911;BME280;16028;42.642;23.310;2023-04-10T00:15:57;94078.84;;;8.02;70.60
28911;BME280;16028;42.642;23.310;2023-04-10T00:18:24;94080.22;;;8.06;69.59
28911;BME280;16028;42.642;23.310;2023-04-10T00:20:51;94072.72;;;8.03;69.38
28911;BME280;16028;42.642;23.310;2023-04-10T00:23:19;94067.53;;;8.03;68.70
28911;BME280;16028;42.642;23.310;2023-04-10T00:25:46;94072.00;;;8.01;68.90
28911;BME280;16028;42.642;23.310;2023-04-10T00:28:12;94075.56;;;8.00;68.63
28911;BME280;16028;42.642;23.310;2023-04-10T00:30:40;94073.66;;;8.02;68.39
28911;BME280;16028;42.642;23.310;2023-04-10T00:33:07;94069.88;;;8.06;68.16
28911;BME280;16028;42.642;23.310;2023-04-10T00:35:33;94065.78;;;8.04;67.76
28911;BME280;16028;42.642;23.310;2023-04-10T00:38:00;94067.66;;;8.02;67.81
28911;BME280;16028;42.642;23.310;2023-04-10T00:40:28;94068.09;;;8.07;67.54
28911;BME280;16028;42.642;23.310;2023-04-10T00:42:54;94063.47;;;8.10;68.03
28911;BME280;16028;42.642;23.310;2023-04-10T00:45:21;94071.63;;;8.06;68.23
28911;BME280;16028;42.642;23.310;2023-04-10T00:47:47;94061.38;;;8.04;69.35
28911;BME280;16028;42.642;23.310;2023-04-10T00:50:14;94061.53;;;8.03;70.48
28911;BME280;16028;42.642;23.310;2023-04-10T00:52:41;94065.06;;;8.02;70.08
28911;BME280;16028;42.642;23.310;2023-04-10T00:55:08;94065.59;;;7.95;69.94
28911;BME280;16028;42.642;23.310;2023-04-10T00:57:36;94064.19;;;7.91;70.18
28911;BME280;16028;42.642;23.310;2023-04-10T01:00:03;94059.16;;;7.90;69.57
28911;BME280;16028;42.642;23.310;2023-04-10T01:02:29;94050.47;;;7.91;68.47
28911;BME280;16028;42.642;23.310;2023-04-10T01:04:57;94052.03;;;7.82;68.86
28911;BME280;16028;42.642;23.310;2023-04-10T01:07:27;94052.50;;;7.87;68.28
28911;BME280;16028;42.642;23.310;2023-04-10T01:09:57;94048.25;;;7.86;68.05
28911;BME280;16028;42.642;23.310;2023-04-10T01:12:30;94058.56;;;7.77;68.07
28911;BME280;16028;42.642;23.310;2023-04-10T01:15:05;94052.56;;;7.76;68.96
28911;BME280;16028;42.642;23.310;2023-04-10T01:17:36;94054.22;;;7.77;69.28
28911;BME280;16028;42.642;23.310;2023-04-10T01:20:06;94051.47;;;7.79;69.02
28911;BME280;16028;42.642;23.310;2023-04-10T01:22:34;94050.53;;;7.80;68.87
28911;BME280;16028;42.642;23.310;2023-04-10T01:25:16;94057.09;;;7.84;69.91
28911;BME280;16028;42.642;23.310;2023-04-10T01:27:44;94057.94;;;7.84;69.26
28911;BME280;16028;42.642;23.310;2023-04-10T01:30:15;94051.22;;;7.82;69.31
28911;BME280;16028;42.642;23.310;2023-04-10T01:32:43;94059.25;;;7.79;69.00
28911;BME280;16028;42.642;23.310;2023-04-10T01:35:10;94053.38;;;7.77;69.65
28911;BME280;16028;42.642;23.310;2023-04-10T01:37:39;94047.38;;;7.76;69.76
28911;BME280;16028;42.642;23.310;2023-04-10T01:40:08;94058.31;;;7.80;70.13
28911;BME280;16028;42.642;23.310;2023-04-10T01:42:38;94049.59;;;7.81;70.11
28911;BME280;16028;42.642;23.310;2023-04-10T01:45:05;94047.84;;;7.81;70.66
28911;BME280;16028;42.642;23.310;2023-04-10T01:47:35;94046.59;;;7.85;69.32
28911;BME280;16028;42.642;23.310;2023-04-10T01:50:02;94052.59;;;7.86;70.90
28911;BME280;16028;42.642;23.310;2023-04-10T01:52:29;94048.63;;;7.82;70.93
28911;BME280;16028;42.642;23.310;2023-04-10T01:54:56;94051.25;;;7.91;70.57
28911;BME280;16028;42.642;23.310;2023-04-10T01:57:23;94051.81;;;7.95;70.16
28911;BME280;16028;42.642;23.310;2023-04-10T01:59:50;94048.41;;;7.94;70.12
28911;BME280;16028;42.642;23.310;2023-04-10T02:02:16;94046.53;;;7.96;70.17
28911;BME280;16028;42.642;23.310;2023-04-10T02:04:44;94051.00;;;7.94;70.20
28911;BME280;16028;42.642;23.310;2023-04-10T02:07:15;94049.50;;;7.92;70.80
28911;BME280;16028;42.642;23.310;2023-04-10T02:09:46;94046.91;;;7.92;71.55
28911;BME280;16028;42.642;23.310;2023-04-10T02:12:15;94046.06;;;7.91;72.44
28911;BME280;16028;42.642;23.310;2023-04-10T02:14:42;94046.91;;;7.92;72.36
28911;BME280;16028;42.642;23.310;2023-04-10T02:17:10;94042.84;;;7.99;71.84
28911;BME280;16028;42.642;23.310;2023-04-10T02:19:39;94043.66;;;7.99;71.46
28911;BME280;16028;42.642;23.310;2023-04-10T02:22:08;94041.75;;;8.02;71.59
28911;BME280;16028;42.642;23.310;2023-04-10T02:24:34;94043.50;;;8.01;71.70
28911;BME280;16028;42.642;23.310;2023-04-10T02:27:01;94033.72;;;8.05;71.16
28911;BME280;16028;42.642;23.310;2023-04-10T02:29:27;94030.06;;;8.07;71.85
28911;BME280;16028;42.642;23.310;2023-04-10T02:31:54;94023.25;;;8.06;72.12
28911;BME280;16028;42.642;23.310;2023-04-10T02:34:21;94020.22;;;8.11;72.14
28911;BME280;16028;42.642;23.310;2023-04-10T02:36:47;94019.16;;;8.13;71.71
28911;BME280;16028;42.642;23.310;2023-04-10T02:39:17;94009.38;;;8.17;71.62
28911;BME280;16028;42.642;23.310;2023-04-10T02:41:44;94003.38;;;8.16;71.75
28911;BME280;16028;42.642;23.310;2023-04-10T02:44:11;94004.03;;;8.18;72.70
28911;BME280;16028;42.642;23.310;2023-04-10T02:46:37;94002.81;;;8.22;72.08
28911;BME280;16028;42.642;23.310;2023-04-10T02:49:04;93996.66;;;8.23;72.24
28911;BME280;16028;42.642;23.310;2023-04-10T02:51:33;93992.59;;;8.21;71.66
28911;BME280;16028;42.642;23.310;2023-04-10T02:54:00;93985.06;;;8.18;72.25
28911;BME280;16028;42.642;23.310;2023-04-10T02:56:28;93990.00;;;8.21;72.96
28911;BME280;16028;42.642;23.310;2023-04-10T02:58:54;93987.97;;;8.24;72.74
28911;BME280;16028;42.642;23.310;2023-04-10T03:01:21;93987.84;;;8.26;71.98
28911;BME280;16028;42.642;23.310;2023-04-10T03:03:47;93988.66;;;8.26;71.52
28911;BME280;16028;42.642;23.310;2023-04-10T03:06:14;93983.03;;;8.21;71.97
28911;BME280;16028;42.642;23.310;2023-04-10T03:08:40;93987.28;;;8.22;72.23
28911;BME280;16028;42.642;23.310;2023-04-10T03:11:07;93991.50;;;8.23;71.79
28911;BME280;16028;42.642;23.310;2023-04-10T03:13:35;93990.00;;;8.21;71.46
28911;BME280;16028;42.642;23.310;2023-04-10T03:16:01;93999.25;;;8.23;71.30
28911;BME280;16028;42.642;23.310;2023-04-10T03:18:31;93989.66;;;8.35;70.54
28911;BME280;16028;42.642;23.310;2023-04-10T03:20:58;93991.97;;;8.38;69.34
28911;BME280;16028;42.642;23.310;2023-04-10T03:23:26;93992.78;;;8.38;69.33
28911;BME280;16028;42.642;23.310;2023-04-10T03:25:52;93992.78;;;8.38;69.57
28911;BME280;16028;42.642;23.310;2023-04-10T03:28:19;93993.47;;;8.40;69.48
28911;BME280;16028;42.642;23.310;2023-04-10T03:30:47;93988.28;;;8.40;68.66
28911;BME280;16028;42.642;23.310;2023-04-10T03:33:13;93998.91;;;8.37;68.76
28911;BME280;16028;42.642;23.310;2023-04-10T03:35:40;93994.00;;;8.34;69.34
28911;BME280;16028;42.642;23.310;2023-04-10T03:38:06;93991.69;;;8.31;69.32
28911;BME280;16028;42.642;23.310;2023-04-10T03:40:33;93992.31;;;8.24;69.76
28911;BME280;16028;42.642;23.310;2023-04-10T03:43:00;93995.47;;;8.27;70.31
28911;BME280;16028;42.642;23.310;2023-04-10T03:45:26;94001.63;;;8.26;70.51
28911;BME280;16028;42.642;23.310;2023-04-10T03:47:54;93998.31;;;8.24;70.64
28911;BME280;16028;42.642;23.310;2023-04-10T03:50:20;94002.00;;;8.22;70.70
28911;BME280;16028;42.642;23.310;2023-04-10T03:52:47;94004.50;;;8.33;70.13
28911;BME280;16028;42.642;23.310;2023-04-10T03:55:14;94006.09;;;8.24;70.31
28911;BME280;16028;42.642;23.310;2023-04-10T03:57:43;94011.81;;;8.18;70.63
28911;BME280;16028;42.642;23.310;2023-04-10T04:00:12;94018.72;;;8.08;71.44
28911;BME280;16028;42.642;23.310;2023-04-10T04:02:39;94020.66;;;8.06;72.42
28911;BME280;16028;42.642;23.310;2023-04-10T04:05:08;94024.31;;;8.04;71.71
28911;BME280;16028;42.642;23.310;2023-04-10T04:07:34;94032.47;;;7.99;72.34
28911;BME280;16028;42.642;23.310;2023-04-10T04:10:01;94030.03;;;7.97;71.71
28911;BME280;16028;42.642;23.310;2023-04-10T04:12:27;94026.72;;;7.86;72.06
28911;BME280;16028;42.642;23.310;2023-04-10T04:14:54;94031.88;;;7.86;72.80
28911;BME280;16028;42.642;23.310;2023-04-10T04:17:20;94031.59;;;7.79;72.80
28911;BME280;16028;42.642;23.310;2023-04-10T04:19:47;94031.25;;;7.63;75.18
28911;BME280;16028;42.642;23.310;2023-04-10T04:22:15;94036.00;;;7.58;75.65
28911;BME280;16028;42.642;23.310;2023-04-10T04:24:42;94037.59;;;7.50;75.21
28911;BME280;16028;42.642;23.310;2023-04-10T04:27:08;94035.81;;;7.50;76.57
28911;BME280;16028;42.642;23.310;2023-04-10T04:29:35;94043.72;;;7.49;76.28
28911;BME280;16028;42.642;23.310;2023-04-10T04:32:02;94038.13;;;7.53;77.57
28911;BME280;16028;42.642;23.310;2023-04-10T04:34:28;94039.94;;;7.53;77.99
28911;BME280;16028;42.642;23.310;2023-04-10T04:36:55;94038.44;;;7.60;76.91
28911;BME280;16028;42.642;23.310;2023-04-10T04:39:23;94041.34;;;7.66;76.87
28911;BME280;16028;42.642;23.310;2023-04-10T04:41:50;94045.06;;;7.73;76.19
28911;BME280;16028;42.642;23.310;2023-04-10T04:44:17;94049.41;;;7.73;76.11
28911;BME280;16028;42.642;23.310;2023-04-10T04:46:43;94043.72;;;7.79;76.41
28911;BME280;16028;42.642;23.310;2023-04-10T04:49:11;94042.53;;;7.92;76.56
28911;BME280;16028;42.642;23.310;2023-04-10T04:51:37;94045.56;;;7.97;75.03
28911;BME280;16028;42.642;23.310;2023-04-10T04:54:04;94036.47;;;8.03;74.46
28911;BME280;16028;42.642;23.310;2023-04-10T04:56:32;94049.97;;;8.07;73.86
28911;BME280;16028;42.642;23.310;2023-04-10T04:58:58;94055.41;;;8.04;73.50
28911;BME280;16028;42.642;23.310;2023-04-10T05:01:25;94058.38;;;7.99;74.13
28911;BME280;16028;42.642;23.310;2023-04-10T05:03:51;94056.34;;;8.03;74.63
28911;BME280;16028;42.642;23.310;2023-04-10T05:06:18;94053.22;;;8.09;73.94
28911;BME280;16028;42.642;23.310;2023-04-10T05:08:44;94054.72;;;8.11;74.58
28911;BME280;16028;42.642;23.310;2023-04-10T05:11:11;94060.75;;;8.12;74.64
28911;BME280;16028;42.642;23.310;2023-04-10T05:13:39;94056.00;;;8.17;74.88
28911;BME280;16028;42.642;23.310;2023-04-10T05:16:06;94052.44;;;8.18;74.11
28911;BME280;16028;42.642;23.310;2023-04-10T05:18:33;94050.56;;;8.20;74.30
28911;BME280;16028;42.642;23.310;2023-04-10T05:21:00;94059.56;;;8.25;73.72
28911;BME280;16028;42.642;23.310;2023-04-10T05:23:26;94054.22;;;8.27;73.40
28911;BME280;16028;42.642;23.310;2023-04-10T05:25:53;94064.75;;;8.25;73.89
28911;BME280;16028;42.642;23.310;2023-04-10T05:28:19;94062.28;;;8.24;73.38
28911;BME280;16028;42.642;23.310;2023-04-10T05:30:48;94057.50;;;8.19;74.26
28911;BME280;16028;42.642;23.310;2023-04-10T05:33:14;94063.09;;;8.24;74.54
28911;BME280;16028;42.642;23.310;2023-04-10T05:35:41;94053.50;;;8.36;74.26
28911;BME280;16028;42.642;23.310;2023-04-10T05:38:07;94054.72;;;8.41;73.55
28911;BME280;16028;42.642;23.310;2023-04-10T05:40:34;94054.72;;;8.41;73.54
28911;BME280;16028;42.642;23.310;2023-04-10T05:43:01;94057.16;;;8.43;74.07
28911;BME280;16028;42.642;23.310;2023-04-10T05:45:27;94055.28;;;8.45;73.66
28911;BME280;16028;42.642;23.310;2023-04-10T05:47:55;94059.91;;;8.51;75.47
28911;BME280;16028;42.642;23.310;2023-04-10T05:50:22;94062.38;;;8.62;75.59
28911;BME280;16028;42.642;23.310;2023-04-10T05:52:48;94060.91;;;8.69;75.16
28911;BME280;16028;42.642;23.310;2023-04-10T05:55:15;94060.50;;;8.74;74.94
28911;BME280;16028;42.642;23.310;2023-04-10T05:57:42;94062.00;;;8.86;73.97
28911;BME280;16028;42.642;23.310;2023-04-10T06:00:08;94063.66;;;8.87;73.91
28911;BME280;16028;42.642;23.310;2023-04-10T06:02:35;94063.78;;;8.85;74.87
28911;BME280;16028;42.642;23.310;2023-04-10T06:05:03;94065.69;;;8.93;75.78
28911;BME280;16028;42.642;23.310;2023-04-10T06:07:30;94067.59;;;9.00;75.29
28911;BME280;16028;42.642;23.310;2023-04-10T06:09:57;94066.50;;;9.03;73.54
28911;BME280;16028;42.642;23.310;2023-04-10T06:12:24;94065.81;;;9.01;74.19
28911;BME280;16028;42.642;23.310;2023-04-10T06:14:50;94067.03;;;9.07;74.63
28911;BME280;16028;42.642;23.310;2023-04-10T06:17:17;94065.13;;;9.18;72.80
28911;BME280;16028;42.642;23.310;2023-04-10T06:19:45;94066.75;;;9.19;72.96
28911;BME280;16028;42.642;23.310;2023-04-10T06:22:13;94067.84;;;9.17;73.53
28911;BME280;16028;42.642;23.310;2023-04-10T06:24:39;94062.66;;;9.17;73.86
28911;BME280;16028;42.642;23.310;2023-04-10T06:27:06;94065.25;;;9.17;72.50
28911;BME280;16028;42.642;23.310;2023-04-10T06:29:33;94061.06;;;9.16;73.46
28911;BME280;16028;42.642;23.310;2023-04-10T06:31:59;94061.03;;;9.25;73.56
28911;BME280;16028;42.642;23.310;2023-04-10T06:34:26;94059.38;;;9.34;74.13
28911;BME280;16028;42.642;23.310;2023-04-10T06:36:52;94058.00;;;9.39;74.09
28911;BME280;16028;42.642;23.310;2023-04-10T06:39:20;94057.47;;;9.36;72.23
28911;BME280;16028;42.642;23.310;2023-04-10T06:41:47;94063.09;;;9.31;72.04
28911;BME280;16028;42.642;23.310;2023-04-10T06:44:13;94063.06;;;9.41;73.20
28911;BME280;16028;42.642;23.310;2023-04-10T06:46:40;94058.25;;;9.46;72.29
28911;BME280;16028;42.642;23.310;2023-04-10T06:49:06;94063.19;;;9.49;72.87
28911;BME280;16028;42.642;23.310;2023-04-10T06:51:33;94060.84;;;9.55;72.23
28911;BME280;16028;42.642;23.310;2023-04-10T06:53:59;94060.16;;;9.53;71.09
28911;BME280;16028;42.642;23.310;2023-04-10T06:56:27;94066.41;;;9.61;70.86
28911;BME280;16028;42.642;23.310;2023-04-10T06:58:54;94069.56;;;9.54;70.39
28911;BME280;16028;42.642;23.310;2023-04-10T07:01:21;94077.09;;;9.48;71.70
28911;BME280;16028;42.642;23.310;2023-04-10T07:03:48;94075.75;;;9.53;72.35
28911;BME280;16028;42.642;23.310;2023-04-10T07:06:14;94081.22;;;9.60;70.87
28911;BME280;16028;42.642;23.310;2023-04-10T07:08:41;94076.53;;;9.64;70.50
28911;BME280;16028;42.642;23.310;2023-04-10T07:11:07;94078.16;;;9.65;69.83
28911;BME280;16028;42.642;23.310;2023-04-10T07:13:35;94075.19;;;9.60;70.44
28911;BME280;16028;42.642;23.310;2023-04-10T07:16:04;94076.53;;;9.64;69.74
28911;BME280;16028;42.642;23.310;2023-04-10T07:18:32;94074.88;;;9.72;70.36
28911;BME280;16028;42.642;23.310;2023-04-10T07:20:59;94074.47;;;9.67;70.27
28911;BME280;16028;42.642;23.310;2023-04-10T07:23:26;94069.69;;;9.72;69.92
28911;BME280;16028;42.642;23.310;2023-04-10T07:25:52;94071.88;;;9.67;68.93
28911;BME280;16028;42.642;23.310;2023-04-10T07:28:20;94068.63;;;9.55;69.81
28911;BME280;16028;42.642;23.310;2023-04-10T07:30:48;94079.41;;;9.61;70.52
28911;BME280;16028;42.642;23.310;2023-04-10T07:33:14;94076.53;;;9.64;70.02
28911;BME280;16028;42.642;23.310;2023-04-10T07:35:41;94081.63;;;9.55;70.38
28911;BME280;16028;42.642;23.310;2023-04-10T07:38:07;94077.09;;;9.57;70.75
28911;BME280;16028;42.642;23.310;2023-04-10T07:40:34;94078.34;;;9.53;70.80
28911;BME280;16028;42.642;23.310;2023-04-10T07:43:01;94081.59;;;9.65;70.36
28911;BME280;16028;42.642;23.310;2023-04-10T07:45:27;94085.00;;;9.66;69.97
28911;BME280;16028;42.642;23.310;2023-04-10T07:47:55;94085.28;;;9.63;71.76
28911;BME280;16028;42.642;23.310;2023-04-10T07:50:23;94088.16;;;9.69;70.89
28911;BME280;16028;42.642;23.310;2023-04-10T07:52:50;94085.00;;;9.66;70.87
28911;BME280;16028;42.642;23.310;2023-04-10T07:55:16;94081.47;;;9.67;71.52
28911;BME280;16028;42.642;23.310;2023-04-10T07:57:43;94084.72;;;9.78;71.47
28911;BME280;16028;42.642;23.310;2023-04-10T08:00:10;94087.41;;;9.86;69.58
28911;BME280;16028;42.642;23.310;2023-04-10T08:02:36;94078.09;;;9.93;69.41
28911;BME280;16028;42.642;23.310;2023-04-10T08:05:06;94081.09;;;9.98;70.25
28911;BME280;16028;42.642;23.310;2023-04-10T08:07:33;94085.56;;;10.06;70.14
28911;BME280;16028;42.642;23.310;2023-04-10T08:10:00;94078.75;;;10.05;69.30
28911;BME280;16028;42.642;23.310;2023-04-10T08:12:27;94086.38;;;10.06;69.25
28911;BME280;16028;42.642;23.310;2023-04-10T08:14:53;94080.13;;;9.99;69.60
28911;BME280;16028;42.642;23.310;2023-04-10T08:17:20;94084.78;;;9.96;69.19
28911;BME280;16028;42.642;23.310;2023-04-10T08:19:46;94083.28;;;9.93;69.77
28911;BME280;16028;42.642;23.310;2023-04-10T08:22:14;94083.94;;;10.05;69.84
28911;BME280;16028;42.642;23.310;2023-04-10T08:24:41;94084.63;;;10.07;69.51
28911;BME280;16028;42.642;23.310;2023-04-10T08:27:07;94079.25;;;10.18;69.20
28911;BME280;16028;42.642;23.310;2023-04-10T08:29:36;94079.25;;;10.18;67.86
28911;BME280;16028;42.642;23.310;2023-04-10T08:32:02;94078.28;;;10.19;68.39
28911;BME280;16028;42.642;23.310;2023-04-10T08:34:29;94084.97;;;10.22;67.85
28911;BME280;16028;42.642;23.310;2023-04-10T08:36:55;94075.69;;;10.19;68.03
28911;BME280;16028;42.642;23.310;2023-04-10T08:39:23;94080.47;;;10.24;68.72
28911;BME280;16028;42.642;23.310;2023-04-10T08:41:50;94077.75;;;10.16;68.43
28911;BME280;16028;42.642;23.310;2023-04-10T08:44:16;94081.56;;;10.11;68.72
28911;BME280;16028;42.642;23.310;2023-04-10T08:46:43;94078.53;;;10.26;69.68
28911;BME280;16028;42.642;23.310;2023-04-10T08:49:14;94078.13;;;10.30;68.06
28911;BME280;16028;42.642;23.310;2023-04-10T08:51:45;94080.03;;;10.28;68.58
28911;BME280;16028;42.642;23.310;2023-04-10T08:54:17;94075.00;;;10.27;68.51
28911;BME280;16028;42.642;23.310;2023-04-10T08:56:48;94067.84;;;10.29;68.46
28911;BME280;16028;42.642;23.310;2023-04-10T08:59:15;94073.00;;;10.38;67.51
28911;BME280;16028;42.642;23.310;2023-04-10T09:01:42;94072.06;;;10.39;68.18
28911;BME280;16028;42.642;23.310;2023-04-10T09:04:09;94074.50;;;10.41;67.42
28911;BME280;16028;42.642;23.310;2023-04-10T09:06:36;94069.00;;;10.44;67.70
28911;BME280;16028;42.642;23.310;2023-04-10T09:09:04;94065.88;;;10.40;67.12
28911;BME280;16028;42.642;23.310;2023-04-10T09:14:20;94062.59;;;10.38;66.93
28911;BME280;16028;42.642;23.310;2023-04-10T09:16:47;94060.06;;;10.29;68.18
28911;BME280;16028;42.642;23.310;2023-04-10T09:19:15;94062.22;;;10.33;68.23
28911;BME280;16028;42.642;23.310;2023-04-10T09:21:54;94056.06;;;10.34;69.13
28911;BME280;16028;42.642;23.310;2023-04-10T09:24:21;94058.13;;;10.31;68.21
28911;BME280;16028;42.642;23.310;2023-04-10T09:26:48;94053.66;;;10.23;67.38
28911;BME280;16028;42.642;23.310;2023-04-10T09:29:14;94054.06;;;10.19;68.50
28911;BME280;16028;42.642;23.310;2023-04-10T09:31:43;94054.56;;;10.32;67.53
28911;BME280;16028;42.642;23.310;2023-04-10T09:34:11;94053.03;;;10.39;69.24
28911;BME280;16028;42.642;23.310;2023-04-10T09:36:37;94047.63;;;10.50;67.14
28911;BME280;16028;42.642;23.310;2023-04-10T09:39:05;94049.78;;;10.54;66.93
28911;BME280;16028;42.642;23.310;2023-04-10T09:41:32;94047.47;;;10.51;65.66
28911;BME280;16028;42.642;23.310;2023-04-10T09:44:05;94048.34;;;10.42;65.63
28911;BME280;16028;42.642;23.310;2023-04-10T09:46:32;94055.69;;;10.47;66.55
28911;BME280;16028;42.642;23.310;2023-04-10T09:49:00;94053.56;;;10.42;68.22
28911;BME280;16028;42.642;23.310;2023-04-10T09:51:29;94050.25;;;10.40;69.55
28911;BME280;16028;42.642;23.310;2023-04-10T09:53:56;94046.72;;;10.41;68.55
28911;BME280;16028;42.642;23.310;2023-04-10T09:56:23;94050.50;;;10.47;68.45
28911;BME280;16028;42.642;23.310;2023-04-10T09:58:52;94044.22;;;10.49;68.42
28911;BME280;16028;42.642;23.310;2023-04-10T10:01:19;94047.13;;;10.46;67.78
28911;BME280;16028;42.642;23.310;2023-04-10T10:03:46;94045.16;;;10.48;67.39
28911;BME280;16028;42.642;23.310;2023-04-10T10:06:14;94047.19;;;10.54;66.74
28911;BME280;16028;42.642;23.310;2023-04-10T10:08:41;94039.09;;;10.57;66.25
28911;BME280;16028;42.642;23.310;2023-04-10T10:11:07;94036.19;;;10.60;66.49
28911;BME280;16028;42.642;23.310;2023-04-10T10:13:37;94033.59;;;10.60;67.40
28911;BME280;16028;42.642;23.310;2023-04-10T10:16:08;94035.84;;;10.73;66.85
28911;BME280;16028;42.642;23.310;2023-04-10T10:18:38;94027.44;;;10.79;67.12
28911;BME280;16028;42.642;23.310;2023-04-10T10:21:09;94031.81;;;10.96;66.03
28911;BME280;16028;42.642;23.310;2023-04-10T10:23:39;94027.28;;;10.98;64.33
28911;BME280;16028;42.642;23.310;2023-04-10T10:26:07;94023.13;;;10.88;64.77
28911;BME280;16028;42.642;23.310;2023-04-10T10:28:35;94023.63;;;10.91;64.69
28911;BME280;16028;42.642;23.310;2023-04-10T10:31:02;94013.09;;;10.93;64.84
28911;BME280;16028;42.642;23.310;2023-04-10T10:33:29;94016.81;;;10.90;64.03
28911;BME280;16028;42.642;23.310;2023-04-10T10:35:57;94016.03;;;10.98;64.44
28911;BME280;16028;42.642;23.310;2023-04-10T10:38:24;94013.44;;;11.15;62.58
28911;BME280;16028;42.642;23.310;2023-04-10T10:40:53;94004.00;;;11.14;63.19
28911;BME280;16028;42.642;23.310;2023-04-10T10:43:31;93995.66;;;11.29;60.43
28911;BME280;16028;42.642;23.310;2023-04-10T10:46:01;93999.38;;;11.26;59.62
28911;BME280;16028;42.642;23.310;2023-04-10T10:48:29;93993.13;;;11.19;60.00
28911;BME280;16028;42.642;23.310;2023-04-10T10:50:55;93991.41;;;11.28;60.45
28911;BME280;16028;42.642;23.310;2023-04-10T10:53:32;93987.06;;;11.36;58.61
28911;BME280;16028;42.642;23.310;2023-04-10T10:56:07;93981.06;;;11.36;57.90
28911;BME280;16028;42.642;23.310;2023-04-10T10:58:54;93982.00;;;11.35;59.78
28911;BME280;16028;42.642;23.310;2023-04-10T11:01:21;93982.22;;;11.41;59.06
28911;BME280;16028;42.642;23.310;2023-04-10T11:03:48;93985.13;;;11.38;60.69
28911;BME280;16028;42.642;23.310;2023-04-10T11:06:15;93974.41;;;11.41;61.43
28911;BME280;16028;42.642;23.310;2023-04-10T11:08:43;93966.28;;;11.70;63.45
28911;BME280;16028;42.642;23.310;2023-04-10T11:11:14;93961.34;;;11.93;59.79
28911;BME280;16028;42.642;23.310;2023-04-10T11:13:41;93954.94;;;12.29;59.85
28911;BME280;16028;42.642;23.310;2023-04-10T11:16:09;93952.06;;;12.48;57.13
28911;BME280;16028;42.642;23.310;2023-04-10T11:21:22;93939.50;;;12.52;60.08
28911;BME280;16028;42.642;23.310;2023-04-10T11:24:00;93937.09;;;12.66;55.70
28911;BME280;16028;42.642;23.310;2023-04-10T11:26:39;93940.66;;;12.73;54.02
28911;BME280;16028;42.642;23.310;2023-04-10T11:31:54;93935.28;;;12.75;53.65
28911;BME280;16028;42.642;23.310;2023-04-10T11:34:20;93940.03;;;12.63;55.67
28911;BME280;16028;42.642;23.310;2023-04-10T11:36:48;93939.19;;;12.55;53.81
28911;BME280;16028;42.642;23.310;2023-04-10T11:39:15;93938.38;;;12.46;54.34
28911;BME280;16028;42.642;23.310;2023-04-10T11:41:46;93947.69;;;12.07;57.36
28911;BME280;16028;42.642;23.310;2023-04-10T11:44:14;93944.75;;;11.68;64.54
28911;BME280;16028;42.642;23.310;2023-04-10T11:46:41;93942.50;;;11.13;65.44
28911;BME280;16028;42.642;23.310;2023-04-10T11:49:10;93939.63;;;10.99;65.79
28911;BME280;16028;42.642;23.310;2023-04-10T11:51:37;93949.16;;;10.90;61.44
28911;BME280;16028;42.642;23.310;2023-04-10T11:54:05;93944.31;;;10.95;65.25
28911;BME280;16028;42.642;23.310;2023-04-10T11:56:32;93946.72;;;11.14;64.73
28911;BME280;16028;42.642;23.310;2023-04-10T11:59:00;93937.69;;;11.27;64.01
28911;BME280;16028;42.642;23.310;2023-04-10T12:01:31;93933.69;;;11.40;61.03
28911;BME280;16028;42.642;23.310;2023-04-10T12:03:58;93932.31;;;11.54;62.22
28911;BME280;16028;42.642;23.310;2023-04-10T12:06:25;93944.91;;;11.66;58.59
28911;BME280;16028;42.642;23.310;2023-04-10T12:08:52;93928.31;;;11.67;60.75
28911;BME280;16028;42.642;23.310;2023-04-10T12:11:19;93922.94;;;11.69;59.12
28911;BME280;16028;42.642;23.310;2023-04-10T12:13:46;93923.03;;;11.77;57.43
28911;BME280;16028;42.642;23.310;2023-04-10T12:16:14;93928.25;;;11.85;57.39
28911;BME280;16028;42.642;23.310;2023-04-10T12:18:41;93936.38;;;11.74;57.49
28911;BME280;16028;42.642;23.310;2023-04-10T12:21:09;93931.47;;;11.79;58.42
28911;BME280;16028;42.642;23.310;2023-04-10T12:23:36;93936.53;;;11.81;59.14
28911;BME280;16028;42.642;23.310;2023-04-10T12:26:11;93941.09;;;11.79;60.17
28911;BME280;16028;42.642;23.310;2023-04-10T12:28:38;93953.34;;;11.09;60.74
28911;BME280;16028;42.642;23.310;2023-04-10T12:31:06;93965.06;;;10.70;62.97
28911;BME280;16028;42.642;23.310;2023-04-10T12:33:34;93968.94;;;10.30;65.82
28911;BME280;16028;42.642;23.310;2023-04-10T12:36:00;93966.72;;;10.08;68.46
28911;BME280;16028;42.642;23.310;2023-04-10T12:38:39;93969.22;;;10.00;69.53
28911;BME280;16028;42.642;23.310;2023-04-10T12:41:07;93974.03;;;9.95;72.31
28911;BME280;16028;42.642;23.310;2023-04-10T12:43:36;93960.03;;;9.78;74.16
28911;BME280;16028;42.642;23.310;2023-04-10T12:46:03;93964.31;;;9.70;73.86
28911;BME280;16028;42.642;23.310;2023-04-10T12:48:30;93962.59;;;9.51;74.61
28911;BME280;16028;42.642;23.310;2023-04-10T12:50:58;93950.72;;;9.48;77.21
28911;BME280;16028;42.642;23.310;2023-04-10T12:53:24;93960.41;;;9.56;76.99
28911;BME280;16028;42.642;23.310;2023-04-10T12:56:00;93945.44;;;9.68;76.46
28911;BME280;16028;42.642;23.310;2023-04-10T12:58:27;93954.84;;;9.78;72.87
28911;BME280;16028;42.642;23.310;2023-04-10T13:00:56;93954.19;;;9.94;73.14
28911;BME280;16028;42.642;23.310;2023-04-10T13:03:23;93947.00;;;10.05;72.57
28911;BME280;16028;42.642;23.310;2023-04-10T13:05:50;93951.53;;;10.31;67.77
28911;BME280;16028;42.642;23.310;2023-04-10T13:08:18;93945.97;;;10.43;67.66